createdAt,value
2023-04-01T00:01:21.525Z,0.80
2023-04-01T00:03:50.769Z,0.70
2023-04-01T00:06:20.592Z,0.70
2023-04-01T00:08:49.695Z,0.70
2023-04-01T00:11:20.552Z,0.70
2023-04-01T00:13:49.959Z,0.70
2023-04-01T00:16:22.061Z,0.70
2023-04-01T00:18:52.774Z,0.70
2023-04-01T00:21:23.324Z,0.70
2023-04-01T00:23:53.258Z,0.70
2023-04-01T00:26:23.320Z,0.70
2023-04-01T00:28:52.562Z,0.70
2023-04-01T00:31:22.133Z,0.70
2023-04-01T00:33:51.149Z,0.70
2023-04-01T00:36:23.095Z,0.70
2023-04-01T00:38:52.045Z,0.70
2023-04-01T00:41:22.770Z,0.60
2023-04-01T00:43:53.169Z,0.60
2023-04-01T00:46:22.069Z,0.60
2023-04-01T00:48:57.922Z,0.65
2023-04-01T00:51:31.163Z,0.60
2023-04-01T00:54:03.252Z,0.60
2023-04-01T00:56:57.306Z,0.60
2023-04-01T00:59:31.426Z,0.60
2023-04-01T01:02:02.936Z,0.68
2023-04-01T01:04:35.384Z,0.70
2023-04-01T01:07:16.354Z,0.63
2023-04-01T01:09:57.431Z,0.60
2023-04-01T01:12:41.756Z,0.60
2023-04-01T01:15:19.369Z,0.60
2023-04-01T01:17:57.375Z,0.50
2023-04-01T01:20:50.443Z,0.50
2023-04-01T01:24:00.501Z,0.43
2023-04-01T01:26:42.114Z,0.50
2023-04-01T01:29:54.086Z,0.40
2023-04-01T01:32:47.523Z,0.40
2023-04-01T01:35:26.067Z,0.50
2023-04-01T01:38:05.615Z,0.50
2023-04-01T01:40:38.516Z,0.40
2023-04-01T01:43:13.264Z,0.40
2023-04-01T01:45:46.580Z,0.40
2023-04-01T01:48:29.356Z,0.40
2023-04-01T01:50:59.168Z,0.40
2023-04-01T01:53:28.541Z,0.35
2023-04-01T01:55:57.673Z,0.40
2023-04-01T01:58:44.376Z,0.30
2023-04-01T02:01:22.585Z,0.40
2023-04-01T02:03:53.838Z,0.40
2023-04-01T02:06:25.638Z,0.40
2023-04-01T02:09:14.922Z,0.40
2023-04-01T02:11:51.404Z,0.40
2023-04-01T02:14:27.710Z,0.40
2023-04-01T02:17:24.786Z,0.40
2023-04-01T02:20:13.398Z,0.50
2023-04-01T02:22:52.978Z,0.40
2023-04-01T02:25:29.834Z,0.40
2023-04-01T02:28:01.680Z,0.40
2023-04-01T02:30:33.732Z,0.30
2023-04-01T02:33:04.111Z,0.30
2023-04-01T02:35:38.895Z,0.30
2023-04-01T02:38:09.721Z,0.40
2023-04-01T02:40:51.624Z,0.40
2023-04-01T02:43:21.426Z,0.40
2023-04-01T02:45:50.228Z,0.40
2023-04-01T02:48:20.383Z,0.40
2023-04-01T02:50:50.592Z,0.43
2023-04-01T02:53:19.641Z,0.40
2023-04-01T02:55:51.458Z,0.40
2023-04-01T02:58:21.058Z,0.50
2023-04-01T03:00:50.568Z,0.50
2023-04-01T03:03:19.726Z,0.50
2023-04-01T03:05:50.546Z,0.40
2023-04-01T03:08:21.229Z,0.30
2023-04-01T03:10:50.303Z,0.40
2023-04-01T03:13:19.105Z,0.30
2023-04-01T03:15:47.872Z,0.40
2023-04-01T03:18:17.079Z,0.50
2023-04-01T03:20:46.768Z,0.40
2023-04-01T03:23:18.043Z,0.50
2023-04-01T03:25:47.450Z,0.60
2023-04-01T03:28:17.125Z,0.40
2023-04-01T03:30:46.754Z,0.40
2023-04-01T03:33:15.845Z,0.40
2023-04-01T03:35:44.744Z,0.40
2023-04-01T03:38:13.504Z,0.30
2023-04-01T03:40:44.923Z,0.50
2023-04-01T03:43:14.283Z,0.30
2023-04-01T03:45:48.061Z,0.30
2023-04-01T03:48:17.764Z,0.30
2023-04-01T03:50:46.914Z,0.40
2023-04-01T03:53:17.018Z,0.40
2023-04-01T03:55:48.479Z,0.30
2023-04-01T03:58:18.204Z,0.40
2023-04-01T04:00:48.208Z,0.30
2023-04-01T04:03:17.610Z,0.40
2023-04-01T04:05:51.131Z,0.40
2023-04-01T04:08:23.044Z,0.30
2023-04-01T04:10:58.950Z,0.50
2023-04-01T04:13:27.923Z,0.40
2023-04-01T04:16:02.623Z,0.30
2023-04-01T04:18:32.160Z,0.30
2023-04-01T04:21:01.076Z,0.30
2023-04-01T04:23:31.377Z,0.30
2023-04-01T04:26:08.522Z,0.30
2023-04-01T04:31:09.564Z,0.40
2023-04-01T04:33:39.228Z,0.30
2023-04-01T04:36:08.687Z,0.40
2023-04-01T04:38:37.613Z,0.30
2023-04-01T04:41:19.409Z,0.30
2023-04-01T04:43:54.477Z,0.40
2023-04-01T04:46:24.938Z,0.30
2023-04-01T04:48:59.896Z,0.30
2023-04-01T04:51:28.893Z,0.40
2023-04-01T04:53:58.375Z,0.30
2023-04-01T04:56:40.180Z,0.30
2023-04-01T04:59:11.111Z,0.30
2023-04-01T05:01:48.984Z,0.30
2023-04-01T05:04:18.277Z,0.30
2023-04-01T05:06:47.318Z,0.30
2023-04-01T05:09:17.161Z,0.50
2023-04-01T05:11:47.024Z,0.40
2023-04-01T05:14:17.421Z,0.50
2023-04-01T05:16:55.964Z,0.50
2023-04-01T05:19:24.958Z,0.50
2023-04-01T05:21:54.591Z,0.50
2023-04-01T05:24:23.889Z,0.40
2023-04-01T05:26:54.688Z,0.43
2023-04-01T05:29:26.408Z,0.30
2023-04-01T05:32:02.310Z,0.30
2023-04-01T05:34:31.207Z,0.40
2023-04-01T05:37:00.545Z,0.40
2023-04-01T05:39:30.030Z,0.30
2023-04-01T05:41:59.500Z,0.32
2023-04-01T05:44:29.170Z,0.30
2023-04-01T05:47:21.329Z,0.30
2023-04-01T05:49:50.644Z,0.32
2023-04-01T05:52:19.846Z,0.30
2023-04-01T05:54:48.947Z,0.40
2023-04-01T05:57:17.924Z,0.40
2023-04-01T05:59:47.548Z,0.43
2023-04-01T06:02:20.395Z,0.40
2023-04-01T06:04:52.200Z,0.40
2023-04-01T06:07:21.463Z,0.38
2023-04-01T06:09:50.375Z,0.40
2023-04-01T06:12:28.631Z,0.40
2023-04-01T06:15:32.980Z,0.30
2023-04-01T06:18:27.627Z,0.30
2023-04-01T06:21:05.366Z,0.35
2023-04-01T06:23:48.570Z,0.50
2023-04-01T06:26:45.785Z,0.40
2023-04-01T06:29:46.638Z,0.30
2023-04-01T06:32:53.164Z,0.30
2023-04-01T06:35:39.803Z,0.40
2023-04-01T06:38:38.449Z,0.38
2023-04-01T06:41:35.543Z,0.30
2023-04-01T06:44:18.936Z,0.30
2023-04-01T06:47:31.197Z,0.30
2023-04-01T06:50:36.786Z,0.30
2023-04-01T06:53:44.669Z,0.50
2023-04-01T06:56:33.968Z,0.50
2023-04-01T06:59:17.526Z,0.40
2023-04-01T07:02:13.477Z,0.50
2023-04-01T07:04:48.562Z,0.43
2023-04-01T07:07:43.495Z,0.30
2023-04-01T07:10:39.078Z,0.30
2023-04-01T07:14:02.146Z,0.30
2023-04-01T07:16:42.360Z,0.30
2023-04-01T07:19:30.823Z,0.30
2023-04-01T07:22:33.819Z,0.30
2023-04-01T07:25:17.921Z,0.30
2023-04-01T07:27:59.379Z,0.30
2023-04-01T07:30:36.019Z,0.32
2023-04-01T07:33:14.751Z,0.30
2023-04-01T07:36:01.730Z,0.40
2023-04-01T07:39:08.045Z,0.50
2023-04-01T07:42:18.115Z,0.50
2023-04-01T07:44:54.092Z,0.40
2023-04-01T07:47:39.683Z,0.40
2023-04-01T07:51:04.357Z,0.40
2023-04-01T07:53:42.993Z,0.40
2023-04-01T07:56:41.023Z,0.40
2023-04-01T07:59:56.514Z,0.40
2023-04-01T08:02:47.573Z,0.40
2023-04-01T08:05:49.031Z,0.40
2023-04-01T08:08:43.674Z,0.30
2023-04-01T08:12:07.179Z,0.30
2023-04-01T08:15:04.674Z,0.40
2023-04-01T08:17:57.750Z,0.30
2023-04-01T08:20:44.026Z,0.40
2023-04-01T08:23:17.960Z,0.40
2023-04-01T08:25:58.936Z,0.38
2023-04-01T08:28:57.026Z,0.40
2023-04-01T08:31:52.235Z,0.30
2023-04-01T08:34:28.665Z,0.40
2023-04-01T08:37:16.386Z,0.30
2023-04-01T08:39:52.297Z,0.30
2023-04-01T08:42:43.853Z,0.30
2023-04-01T08:45:28.468Z,0.40
2023-04-01T08:48:43.031Z,0.40
2023-04-01T08:51:58.090Z,0.30
2023-04-01T08:54:47.275Z,0.30
2023-04-01T08:57:42.767Z,0.40
2023-04-01T09:00:56.391Z,0.40
2023-04-01T09:04:09.187Z,0.40
2023-04-01T09:09:31.974Z,0.40
2023-04-01T09:12:29.507Z,0.40
2023-04-01T09:15:44.371Z,0.40
2023-04-01T09:19:02.957Z,0.40
2023-04-01T09:21:45.037Z,0.40
2023-04-01T09:24:17.257Z,0.40
2023-04-01T09:26:58.501Z,0.40
2023-04-01T09:30:05.022Z,0.40
2023-04-01T09:33:08.244Z,0.50
2023-04-01T09:36:19.541Z,0.40
2023-04-01T09:39:12.545Z,0.50
2023-04-01T09:41:47.744Z,0.47
2023-04-01T09:44:51.030Z,0.40
2023-04-01T09:47:44.624Z,0.50
2023-04-01T09:50:42.211Z,0.50
2023-04-01T09:53:44.820Z,0.40
2023-04-01T09:57:03.522Z,0.40
2023-04-01T09:59:41.340Z,0.50
2023-04-01T10:03:03.427Z,0.40
2023-04-01T10:05:57.703Z,0.40
2023-04-01T10:08:42.127Z,0.40
2023-04-01T10:11:51.713Z,0.50
2023-04-01T10:14:53.298Z,0.45
2023-04-01T10:17:59.624Z,0.50
2023-04-01T10:21:02.326Z,0.50
2023-04-01T10:23:54.899Z,0.50
2023-04-01T10:26:45.176Z,0.50
2023-04-01T10:29:58.635Z,0.50
2023-04-01T10:32:58.791Z,0.50
2023-04-01T10:35:31.784Z,0.50
2023-04-01T10:38:20.972Z,0.50
2023-04-01T10:41:11.133Z,0.50
2023-04-01T10:44:32.863Z,0.60
2023-04-01T10:47:44.265Z,0.50
2023-04-01T10:50:50.854Z,0.52
2023-04-01T10:53:32.542Z,0.57
2023-04-01T10:56:40.305Z,0.50
2023-04-01T11:02:46.064Z,0.60
2023-04-01T11:06:00.755Z,0.70
2023-04-01T11:09:15.911Z,0.60
2023-04-01T11:12:03.220Z,0.60
2023-04-01T11:15:00.914Z,0.60
2023-04-01T11:18:13.958Z,0.60
2023-04-01T11:20:59.465Z,0.60
2023-04-01T11:23:45.525Z,0.60
2023-04-01T11:26:22.127Z,0.60
2023-04-01T11:29:49.796Z,0.60
2023-04-01T11:33:03.016Z,0.60
2023-04-01T11:35:44.370Z,0.60
2023-04-01T11:38:40.405Z,0.60
2023-04-01T11:42:15.181Z,0.60
2023-04-01T11:45:34.927Z,0.60
2023-04-01T11:48:25.971Z,0.65
2023-04-01T11:51:47.691Z,0.60
2023-04-01T11:54:51.295Z,0.70
2023-04-01T12:01:00.357Z,0.70
2023-04-01T12:03:49.848Z,0.68
2023-04-01T12:06:18.634Z,0.60
2023-04-01T12:08:59.299Z,0.70
2023-04-01T12:11:46.149Z,0.60
2023-04-01T12:14:52.725Z,0.60
2023-04-01T12:17:37.016Z,0.68
2023-04-01T12:20:14.690Z,0.60
2023-04-01T12:22:55.323Z,0.63
2023-04-01T12:26:07.224Z,0.60
2023-04-01T12:28:45.599Z,0.60
2023-04-01T12:31:38.906Z,0.70
2023-04-01T12:34:35.139Z,0.70
2023-04-01T12:40:10.669Z,0.70
2023-04-01T12:42:45.322Z,0.70
2023-04-01T12:45:41.632Z,0.70
2023-04-01T12:51:18.345Z,0.70
2023-04-01T12:54:55.667Z,0.70
2023-04-01T12:57:44.618Z,0.70
2023-04-01T13:00:32.533Z,0.70
2023-04-01T13:03:27.324Z,0.70
2023-04-01T13:06:22.265Z,0.60
2023-04-01T13:09:05.953Z,0.70
2023-04-01T13:12:02.692Z,0.70
2023-04-01T13:14:58.781Z,0.60
2023-04-01T13:17:37.190Z,0.70
2023-04-01T13:20:45.499Z,0.70
2023-04-01T13:23:32.763Z,0.65
2023-04-01T13:26:14.248Z,0.70
2023-04-01T13:28:55.342Z,0.70
2023-04-01T13:32:02.564Z,0.70
2023-04-01T13:34:46.426Z,0.70
2023-04-01T13:37:15.247Z,0.70
2023-04-01T13:39:58.171Z,0.70
2023-04-01T13:42:42.084Z,0.70
2023-04-01T13:45:17.412Z,0.70
2023-04-01T13:48:20.986Z,0.70
2023-04-01T13:51:05.986Z,0.70
2023-04-01T13:54:06.898Z,0.70
2023-04-01T13:57:15.977Z,0.70
2023-04-01T14:00:23.974Z,0.70
2023-04-01T14:03:14.520Z,0.70
2023-04-01T14:06:05.432Z,0.70
2023-04-01T14:09:02.257Z,0.70
2023-04-01T14:11:41.372Z,0.70
2023-04-01T14:14:30.918Z,0.70
2023-04-01T14:17:09.863Z,0.70
2023-04-01T14:19:42.513Z,0.80
2023-04-01T14:22:47.892Z,0.70
2023-04-01T14:26:15.493Z,0.70
2023-04-01T14:29:09.089Z,0.70
2023-04-01T14:32:15.272Z,0.70
2023-04-01T14:35:15.680Z,0.70
2023-04-01T14:38:10.905Z,0.70
2023-04-01T14:41:25.034Z,0.70
2023-04-01T14:44:35.181Z,0.70
2023-04-01T14:47:18.312Z,0.70
2023-04-01T14:50:05.240Z,0.70
2023-04-01T14:52:40.540Z,0.70
2023-04-01T14:55:45.245Z,0.70
2023-04-01T14:58:19.010Z,0.80
2023-04-01T15:01:02.583Z,0.70
2023-04-01T15:03:39.457Z,0.70
2023-04-01T15:06:43.001Z,0.80
2023-04-01T15:09:31.595Z,0.70
2023-04-01T15:12:19.034Z,0.70
2023-04-01T15:15:00.456Z,0.70
2023-04-01T15:17:49.829Z,0.70
2023-04-01T15:20:36.315Z,0.70
2023-04-01T15:23:29.539Z,0.70
2023-04-01T15:26:23.383Z,0.70
2023-04-01T15:29:25.675Z,0.70
2023-04-01T15:32:09.750Z,0.70
2023-04-01T15:35:02.430Z,0.70
2023-04-01T15:37:54.113Z,0.70
2023-04-01T15:40:32.851Z,0.70
2023-04-01T15:43:29.052Z,0.70
2023-04-01T15:49:03.834Z,0.70
2023-04-01T15:51:38.542Z,0.70
2023-04-01T15:54:22.589Z,0.70
2023-04-01T15:57:18.773Z,0.77
2023-04-01T16:00:13.536Z,0.70
2023-04-01T16:03:11.354Z,0.70
2023-04-01T16:06:06.784Z,0.70
2023-04-01T16:09:01.723Z,0.70
2023-04-01T16:11:45.889Z,0.70
2023-04-01T16:14:46.829Z,0.80
2023-04-01T16:17:25.305Z,0.70
2023-04-01T16:20:28.434Z,0.70
2023-04-01T16:23:20.437Z,0.70
2023-04-01T16:26:08.394Z,0.70
2023-04-01T16:28:56.829Z,0.70
2023-04-01T16:31:39.084Z,0.80
2023-04-01T16:34:36.535Z,0.70
2023-04-01T16:37:14.646Z,0.70
2023-04-01T16:40:08.584Z,0.70
2023-04-01T16:42:53.973Z,0.70
2023-04-01T16:45:49.643Z,0.70
2023-04-01T16:48:38.362Z,0.80
2023-04-01T16:51:17.678Z,0.70
2023-04-01T16:53:55.779Z,0.70
2023-04-01T16:56:38.197Z,0.70
2023-04-01T16:59:30.288Z,0.70
2023-04-01T17:02:05.098Z,0.70
2023-04-01T17:04:48.739Z,0.70
2023-04-01T17:07:23.898Z,0.70
2023-04-01T17:10:11.288Z,0.70
2023-04-01T17:12:54.910Z,0.70
2023-04-01T17:15:42.744Z,0.70
2023-04-01T17:18:27.227Z,0.70
2023-04-01T17:21:26.281Z,0.70
2023-04-01T17:24:06.966Z,0.68
2023-04-01T17:26:52.074Z,0.70
2023-04-01T17:29:26.857Z,0.70
2023-04-01T17:32:18.992Z,0.70
2023-04-01T17:35:08.383Z,0.70
2023-04-01T17:37:42.845Z,0.70
2023-04-01T17:40:35.488Z,0.70
2023-04-01T17:43:42.076Z,0.70
2023-04-01T17:46:37.769Z,0.70
2023-04-01T17:49:24.804Z,0.80
2023-04-01T17:52:30.790Z,0.70
2023-04-01T17:55:18.535Z,0.70
2023-04-01T17:58:24.157Z,0.70
2023-04-01T18:01:04.997Z,0.70
2023-04-01T18:03:52.537Z,0.70
2023-04-01T18:06:48.745Z,0.80
2023-04-01T18:11:56.464Z,0.70
2023-04-01T18:14:55.999Z,0.80
2023-04-01T18:17:52.229Z,0.70
2023-04-01T18:20:44.423Z,0.70
2023-04-01T18:23:37.071Z,0.70
2023-04-01T18:26:16.218Z,0.80
2023-04-01T18:28:58.007Z,0.70
2023-04-01T18:31:34.623Z,0.70
2023-04-01T18:34:21.903Z,0.80
2023-04-01T18:37:18.730Z,0.70
2023-04-01T18:40:29.126Z,0.80
2023-04-01T18:43:45.386Z,0.70
2023-04-01T18:46:21.434Z,0.70
2023-04-01T18:49:26.802Z,0.70
2023-04-01T18:51:57.568Z,0.80
2023-04-01T18:54:42.314Z,0.70
2023-04-01T18:57:16.197Z,0.70
2023-04-01T18:59:53.182Z,0.70
2023-04-01T19:02:31.061Z,0.70
2023-04-01T19:05:03.159Z,0.70
2023-04-01T19:07:37.962Z,0.70
2023-04-01T19:10:27.976Z,0.80
2023-04-01T19:13:09.476Z,0.80
2023-04-01T19:16:03.289Z,0.80
2023-04-01T19:18:55.685Z,0.70
2023-04-01T19:21:34.757Z,0.70
2023-04-01T19:24:38.328Z,0.80
2023-04-01T19:27:29.553Z,0.70
2023-04-01T19:30:23.811Z,0.70
2023-04-01T19:33:06.235Z,0.80
2023-04-01T19:36:16.757Z,0.70
2023-04-01T19:38:58.933Z,0.80
2023-04-01T19:41:54.542Z,0.80
2023-04-01T19:44:32.141Z,0.80
2023-04-01T19:47:34.428Z,0.70
2023-04-01T19:50:31.004Z,0.80
2023-04-01T19:53:10.300Z,0.70
2023-04-01T19:55:51.234Z,0.70
2023-04-01T19:58:33.156Z,0.80
2023-04-01T20:01:06.550Z,0.80
2023-04-01T20:03:50.506Z,0.70
2023-04-01T20:06:25.361Z,0.80
2023-04-01T20:09:15.194Z,0.70
2023-04-01T20:11:52.624Z,0.80
2023-04-01T20:14:58.327Z,0.70
2023-04-01T20:17:32.200Z,0.70
2023-04-01T20:20:10.089Z,0.80
2023-04-01T20:22:47.766Z,0.77
2023-04-01T20:25:28.689Z,0.80
2023-04-01T20:27:57.357Z,0.80
2023-04-01T20:30:37.350Z,0.80
2023-04-01T20:33:41.665Z,0.70
2023-04-01T20:36:37.715Z,0.80
2023-04-01T20:42:56.073Z,0.80
2023-04-01T20:45:46.733Z,0.80
2023-04-01T20:48:43.245Z,0.70
2023-04-01T20:51:17.330Z,0.80
2023-04-01T20:53:52.937Z,0.80
2023-04-01T20:56:29.994Z,0.80
2023-04-01T20:59:30.036Z,0.77
2023-04-01T21:02:04.221Z,0.80
2023-04-01T21:04:53.283Z,0.80
2023-04-01T21:07:58.036Z,0.80
2023-04-01T21:10:51.815Z,0.80
2023-04-01T21:13:55.729Z,0.80
2023-04-01T21:17:00.563Z,0.80
2023-04-01T21:19:53.578Z,0.80
2023-04-01T21:22:25.128Z,0.80
2023-04-01T21:25:24.109Z,0.70
2023-04-01T21:28:20.201Z,0.80
2023-04-01T21:33:34.022Z,0.80
2023-04-01T21:36:27.965Z,0.80
2023-04-01T21:40:02.015Z,0.70
2023-04-01T21:43:05.445Z,0.80
2023-04-01T21:46:09.530Z,0.80
2023-04-01T21:48:53.330Z,0.80
2023-04-01T21:51:45.567Z,0.80
2023-04-01T21:54:34.669Z,0.80
2023-04-01T21:57:22.653Z,0.80
2023-04-01T22:00:15.506Z,0.80
2023-04-01T22:03:06.115Z,0.80
2023-04-01T22:05:47.530Z,0.80
2023-04-01T22:08:32.941Z,0.80
2023-04-01T22:11:23.302Z,0.80
2023-04-01T22:13:51.930Z,0.80
2023-04-01T22:16:46.234Z,0.80
2023-04-01T22:19:21.767Z,0.80
2023-04-01T22:21:53.667Z,0.80
2023-04-01T22:24:35.316Z,0.80
2023-04-01T22:27:25.468Z,0.80
2023-04-01T22:30:12.109Z,0.80
2023-04-01T22:33:01.900Z,0.80
2023-04-01T22:35:38.742Z,0.80
2023-04-01T22:38:43.942Z,0.80
2023-04-01T22:41:39.118Z,0.80
2023-04-01T22:44:30.460Z,0.80
2023-04-01T22:47:34.996Z,0.80
2023-04-01T22:50:20.191Z,0.82
2023-04-01T22:52:55.532Z,0.90
2023-04-01T22:55:29.892Z,0.80
2023-04-01T22:58:13.259Z,0.80
2023-04-01T23:00:52.256Z,0.80
2023-04-01T23:03:46.856Z,0.80
2023-04-01T23:06:31.590Z,0.80
2023-04-01T23:09:38.520Z,0.80
2023-04-01T23:12:13.137Z,0.80
2023-04-01T23:14:53.942Z,0.80
2023-04-01T23:17:59.890Z,0.80
2023-04-01T23:20:33.895Z,0.80
2023-04-01T23:23:18.061Z,0.80
2023-04-01T23:25:58.232Z,0.80
2023-04-01T23:28:52.295Z,0.80
2023-04-01T23:31:37.048Z,0.80
2023-04-01T23:34:32.742Z,0.80
2023-04-01T23:37:06.926Z,0.80
2023-04-01T23:39:42.479Z,0.80
2023-04-01T23:42:24.477Z,0.90
2023-04-01T23:45:03.498Z,0.80
2023-04-01T23:47:39.705Z,0.80
2023-04-01T23:50:26.382Z,0.80
2023-04-01T23:53:14.665Z,0.80
2023-04-01T23:55:44.219Z,0.80
2023-04-01T23:58:27.930Z,0.80
